Extreme weather reports worldwide

Lowest temperatures

Station
 
Location
 
Name
 
Wind
Knots
Gust
Knots
Vis
SM
Temp/Dew
C
Baro
inHg
METAR
 
NZSP AQ South Pole Station Airport 9 2.98 -62/ 28.21 NZSP 072350Z 07009KT 4800 IC BKN005 M62/ A2821 RMK CIG THN CLN AIR 06010KT ALL WNDS GRID
NZCM 7 6.21 -18/-27 28.92 NZCM 072355Z AUTO 07007KT 9999 BKN100 OVC150 M18/M28 A2892 RMK AO2 SLP799 T11831276 11182 21244 56039 $
MPN EGYP Mount Pleasant, FK Mount Pleasant Airport 8 6.21 -1/-1 30.53 EGYP 072350Z 28008KT 9999 FEW003 M01/M01 Q1034
TNM SCRM Isla Rey Jorge, AQ Teniente Rodolfo Marsh Martin Base 22 0.75 -1/-2 29.82 SCRM 080000Z 26022KT 1200 BR OVC006 M01/M02 Q1010 NOSIG
CWVD 7 0/0 29.59 CWVD 080000Z AUTO 28007KT ////SM BKN002 00/00 A2959

Station
 
Location
 
Name
 
Wind
Knots
Gust
Knots
Vis
SM
Temp/Dew
C
Baro
inHg
METAR
 
RGA SAWE Rio Grande, AR Hermes Quijada International Airport 3 6.21 0/0 30.41 SAWE 080000Z 29003KT 270V340 9999 SCT012 BKN023 00/00 Q1030 RMK PP000
BBA SCBA Balmaceda, CL Balmaceda Airport 11 6.21 1/0 30.27 SCBA 080000Z AUTO 12011KT 9999 OVC032/// 01/M00 Q1025
BRC SAZS San Carlos de Bariloche, AR San Carlos De Bariloche Airport 4 6.21 1/-1 30.24 SAZS 080000Z 13004KT 9999 BKN025 OVC040 01/M01 Q1024 RMK PP///
LIMH IT Pian Rosà 13 1/-3 30.47 LIMH 072355Z AUTO 05013KT //// 01/M03 Q1032
RRS ENRO Røros, NO Røros Airport 0 4.35 2/2 30.09 ENRO 080020Z AUTO 00000KT 7000 NCD 02/02 Q1019
OAR KOAR Marina, US Marina Municipal Airport 9 10 2/-2 30.02 KOAR 080035Z AUTO 28009KT 10SM CLR 02/M02 A3002 RMK AO2
VHM ESNV SE Vilhelmina Airport 1 6.21 2/0 30.03 ESNV 080020Z AUTO VRB01KT 9999 NCD 02/00 Q1017
YCY CYCY Clyde River, CA Clyde River Airport 7 9 3/2 29.64 CYCY 080000Z AUTO 24007KT 9SM CLR 03/02 A2964 RMK SLP042
GXQ SCCY Coyhaique, CL Teniente Vidal Airport 2 6.21 3/0 30.30 SCCY 080000Z VRB02KT 9999 SCT026 OVC036 03/M00 Q1026
PUQ SCCI Punta Arenas, CL Pdte. Carlos Ibañez del Campo Airport 7 6.21 3/0 30.30 SCCI 080000Z 03007KT 9999 FEW040 BKN100 03/M00 Q1026 NOSIG
USH SAWH Ushuahia, AR Malvinas Argentinas Airport 5 6.21 3/-3 30.27 SAWH 080000Z 31005KT 220V360 CAVOK 03/M03 Q1025 RMK PP000
RGL SAWG Rio Gallegos, AR Piloto Civil N. Fernández Airport 13 6.21 3/0 30.35 SAWG 080000Z 02013KT 9999 OVC025 03/00 Q1028
WAA PAIW Wales, US Wales Airport 19 23 4 3/3 29.49 PAIW 072356Z AUTO 34019G23KT 4SM -RA BR OVC004 04/03 A2949 RMK AO2 SLP988 6//// T00390033 10083 20039 53001 PNO $
CWFD 4/1 29.56 CWFD 080000Z AUTO ///// ////SM OVC095 04/01 A2956
TNC PATC Tin City, US Tin City Long Range Radar Station Airport 21 9 4/3 29.45 PATC 080023Z AUTO 01021KT 9SM -RA FEW006 OVC032 04/03 A2945 RMK AO2 SLP975
PMC SCTE Puerto Montt, CL El Tepual Airport 1 6.21 4/4 30.27 SCTE 080000Z VRB01KT 9999 BKN054 04/04 Q1025 NOSIG
MHC SCPQ Dalcahue, CL Mocopulli Airport 0 6.21 4/2 30.27 SCPQ 080000Z AUTO 00000KT CAVOK 04/02 Q1025
FFU SCFT Futaleufu, CL Futaleufú Airport 3 6.21 4/1 30.30 SCFT 080000Z AUTO VRB03KT 9999 FEW041/// OVC069/// 04/01 Q1026
WAP SCAP Alto Palena, CL Alto Palena Airport 1 6.21 4/1 30.38 SCAP 080000Z AUTO VRB01KT 9999 ////// 04/01 Q1029
CZCP 18 4/3 29.87 CZCP 080000Z AUTO 30018KT ////SM //// OVC006 04/03 A2987
SVA PASA Savoonga, US Savoonga Airport 11 5 4/3 29.56 PASA 072356Z AUTO 33011KT 5SM BR OVC008 04/04 A2956 RMK AO2 RAE03 SLP010 6//// T00440039 10078 20044 51017 PNO $
ESKS Strängnäs, SE Strängnäs Air Base 4 6.21 5/5 30.09 ESKS 080020Z AUTO 07004KT 9999 NCD 05/05 Q1019
CXTN 10 5/5 CXTN 080000Z AUTO 34010KT 06/06 RMK AO1 1011 SLP130 T00570057 50039
CWKP 19 5/5 29.82 CWKP 080013Z AUTO 28019KT ////SM OVC003 05/05 A2982
CXRB 6 5/2 CXRB 080000Z AUTO 31006KT 06/02 RMK AO1 SLP085 T00580021 57002
SCON Quellon, CL Quellón Airport 0 6.21 5/4 30.30 SCON 080000Z AUTO 00000KT 9999 OVC071/// 05/04 Q1026
PVS UHMD Chukotka, RU Provideniya Bay Airport 16 25 6.21 5/-1 29.62 UHMD 080030Z 35008G13MPS 9999 OVC033 05/M01 Q1003 RMK QFE751/1002
JYV EFJY Jyväskylän Maalaiskunta, FI Jyvaskyla Airport 2 6.21 5/5 30.09 EFJY 080020Z AUTO VRB02KT 9999 -SHRA NCD 05/05 Q1019
YVM CYVM Qikiqtarjuaq, CA Qikiqtarjuaq Airport 3 9 5/2 29.66 CYVM 080000Z AUTO 06003KT 040V110 9SM OVC016 05/02 A2966 RMK SLP046
NQN SAZN Neuquen, AR Presidente Peron Airport 4 6.21 5/3 30.35 SAZN 080000Z 14004KT 9999 SCT010 SCT018 OVC040 05/03 Q1028
CRD SAVC Comodoro Rivadavia, AR General E. Mosconi Airport 6 6.21 5/3 30.47 SAVC 080000Z 02006KT 9999 -RADZ SCT012 BKN015 OVC040 05/03 Q1032 RMK PP999
CWKM 7 5/3 29.87 CWKM 080034Z AUTO 04007KT ////SM FEW005 BKN009 BKN013 05/03 A2987
HMV ESUT Hemavan, SE Hemavan Airport 2 6.21 5/5 30.03 ESUT 080020Z AUTO VRB02KT 9999 BKN024/// OVC031/// 05/05 Q1017
PAAD Deadhorse, US Point Thomson Airstrip 13 10 5/0 29.80 PAAD 080015Z AUTO 08013KT 10SM OVC100 06/01 A2980 RMK AO2 T00590009
LST YMLT Launceston, AU Launceston Airport 2 6.21 5/2 30.30 YMLT 080030Z AUTO 17002KT 9999 // NCD 05/02 Q1026 RF00.0/000.0
LYC ESNL SE Lycksele Airport 0 6.21 5/3 30.03 ESNL 080020Z AUTO 00000KT 9999 NCD 05/03 Q1017
KIM FAKM Kimberley, ZA Kimberley Airport 6 6/1 30.09 FAKM 080000Z AUTO 27006KT //// // ////// 06/01 Q1019
WCH SCTN Chaiten, CL Chaitén Airport 2 6.21 6/5 30.27 SCTN 080000Z AUTO 04002KT CAVOK 06/05 Q1025
ZOS SCJO Osorno, CL Cañal Bajo Carlos - Hott Siebert Airport 0 6.21 6/5 30.27 SCJO 080000Z AUTO 00000KT 9999 OVC055/// 06/05 Q1025
KUS BGKK Kulusuk, GL Kulusuk Airport 3 6/4 29.35 BGKK 072350Z AUTO 09003KT 9999NDV -RA OVC010/// 06/04 Q0994
TMP EFTP Tampere / Pirkkala, FI Tampere-Pirkkala Airport 1 6.21 6/5 30.09 EFTP 080020Z AUTO VRB01KT CAVOK 06/05 Q1019
PYJ UERP Yakutia, RU Polyarny Airport 4 0.37 6/6 29.65 UERP 080030Z 29002MPS 0600 R35/0900 -RA FG VV003 06/06 Q1004 R35/290250 NOSIG RMK QBB110 QFE709
MDQ SAZM Mar del Plata, AR Ástor Piazzola International Airport 10 6.21 6/4 30.35 SAZM 080000Z 14010KT 9999 OVC020 06/04 Q1028 RMK PP///
XGR CYLU Kangiqsualujjuaq, CA Kangiqsualujjuaq (Georges River) Airport 7 7 6/5 29.63 CYLU 072326Z 29007KT 7SM -SHRA BCFG FEW005 BKN049 OVC090 06/05 A2963 RMK ST2SC4AC2 LAST STFD OBS/NEXT 081200 UTC PRESRR SLP040
MDZ SAME Mendoza, AR El Plumerillo Airport 2 6.21 6/1 30.24 SAME 080000Z 14002KT 9999 SCT025 SCT040 BKN100 06/01 Q1024